createdAt,value
2017-10-11T00:02:17.982Z,100990
2017-10-11T00:04:46.085Z,100986
2017-10-11T00:07:14.177Z,100983
2017-10-11T00:09:42.271Z,100979
2017-10-11T00:12:10.368Z,100981
2017-10-11T00:14:38.589Z,100984
2017-10-11T00:17:07.334Z,100991
2017-10-11T00:19:35.477Z,100981
2017-10-11T00:22:04.000Z,100986
2017-10-11T00:24:32.094Z,100990
2017-10-11T00:27:00.231Z,100997
2017-10-11T00:29:28.343Z,100985
2017-10-11T00:31:56.433Z,100989
2017-10-11T00:34:25.327Z,100990
2017-10-11T00:36:54.175Z,100985
2017-10-11T00:39:22.287Z,100982
2017-10-11T00:41:50.427Z,100975
2017-10-11T00:44:18.539Z,100985
2017-10-11T00:46:46.638Z,100980
2017-10-11T00:49:14.740Z,100983
2017-10-11T00:51:42.853Z,100976
2017-10-11T00:54:11.838Z,100984
2017-10-11T00:56:39.927Z,100979
2017-10-11T00:59:08.801Z,100978
2017-10-11T01:01:36.885Z,100970
2017-10-11T01:04:05.760Z,100935
2017-10-11T01:06:33.845Z,100981
2017-10-11T01:09:01.955Z,100971
2017-10-11T01:11:30.075Z,100963
2017-10-11T01:13:58.169Z,100973
2017-10-11T01:16:27.036Z,100970
2017-10-11T01:18:55.128Z,100973
2017-10-11T01:21:23.248Z,100970
2017-10-11T01:23:51.343Z,100972
2017-10-11T01:26:19.478Z,100972
2017-10-11T01:28:47.582Z,100970
2017-10-11T01:31:15.676Z,100962
2017-10-11T01:33:43.788Z,100964
2017-10-11T01:36:13.719Z,100967
2017-10-11T01:38:41.872Z,100974
2017-10-11T01:41:09.982Z,100970
2017-10-11T01:43:38.067Z,100973
2017-10-11T01:46:06.177Z,100966
2017-10-11T01:48:35.076Z,100968
2017-10-11T01:51:03.160Z,100969
2017-10-11T01:53:31.283Z,100964
2017-10-11T01:55:59.373Z,100961
2017-10-11T01:58:27.511Z,100959
2017-10-11T02:00:55.594Z,100953
2017-10-11T02:03:23.706Z,100959
2017-10-11T02:05:52.549Z,100949
2017-10-11T02:08:20.652Z,100958
2017-10-11T02:10:48.765Z,100950
2017-10-11T02:13:17.868Z,100958
2017-10-11T02:15:45.964Z,100943
2017-10-11T02:18:14.080Z,100957
2017-10-11T02:20:42.369Z,100958
2017-10-11T02:23:10.479Z,100960
2017-10-11T02:25:38.558Z,100958
2017-10-11T02:28:08.410Z,100964
2017-10-11T02:30:36.633Z,100967
2017-10-11T02:33:04.768Z,100957
2017-10-11T02:35:32.853Z,100962
2017-10-11T02:38:00.948Z,100954
2017-10-11T02:40:29.063Z,100944
2017-10-11T02:42:57.148Z,100950
2017-10-11T02:45:25.219Z,100958
2017-10-11T02:47:53.332Z,100959
2017-10-11T02:50:21.411Z,100964
2017-10-11T02:52:49.532Z,100960
2017-10-11T02:55:17.845Z,100956
2017-10-11T02:57:45.962Z,100968
2017-10-11T03:00:14.051Z,100954
2017-10-11T03:02:43.836Z,100961
2017-10-11T03:05:11.935Z,100966
2017-10-11T03:07:40.060Z,100965
2017-10-11T03:10:08.168Z,100951
2017-10-11T03:12:36.278Z,100951
2017-10-11T03:15:04.368Z,100948
2017-10-11T03:17:32.455Z,100950
2017-10-11T03:20:00.583Z,100951
2017-10-11T03:22:29.415Z,100957
2017-10-11T03:24:57.524Z,100958
2017-10-11T03:27:26.404Z,100952
2017-10-11T03:29:54.484Z,100959
2017-10-11T03:32:24.207Z,100958
2017-10-11T03:34:53.259Z,100959
2017-10-11T03:37:21.366Z,100961
2017-10-11T03:39:49.441Z,100957
2017-10-11T03:42:17.543Z,100957
2017-10-11T03:44:45.644Z,100962
2017-10-11T03:47:13.735Z,100957
2017-10-11T03:49:41.832Z,100955
2017-10-11T03:52:09.928Z,100950
2017-10-11T03:54:38.009Z,100955
2017-10-11T03:57:07.028Z,100954
2017-10-11T03:59:35.119Z,100957
2017-10-11T04:02:03.241Z,100939
2017-10-11T04:04:32.319Z,100945
2017-10-11T04:07:04.394Z,100944
2017-10-11T04:09:33.420Z,100939
2017-10-11T04:12:01.513Z,100944
2017-10-11T04:14:29.623Z,100932
2017-10-11T04:16:58.496Z,100939
2017-10-11T04:19:26.596Z,100929
2017-10-11T04:21:55.787Z,100934
2017-10-11T04:24:23.896Z,100929
2017-10-11T04:26:51.971Z,100931
2017-10-11T04:29:20.056Z,100928
2017-10-11T04:31:48.171Z,100930
2017-10-11T04:34:17.052Z,100915
2017-10-11T04:36:45.157Z,100927
2017-10-11T04:39:13.260Z,100924
2017-10-11T04:41:41.472Z,100912
2017-10-11T04:44:09.668Z,100915
2017-10-11T04:46:37.783Z,100918
2017-10-11T04:49:05.875Z,100920
2017-10-11T04:51:34.009Z,100927
2017-10-11T04:54:02.083Z,100916
2017-10-11T04:56:30.236Z,100925
2017-10-11T04:58:59.100Z,100918
2017-10-11T05:01:27.178Z,100919
2017-10-11T05:03:55.255Z,100922
2017-10-11T05:06:24.147Z,100916
2017-10-11T05:08:53.019Z,100921
2017-10-11T05:11:21.136Z,100926
2017-10-11T05:13:49.253Z,100934
2017-10-11T05:16:17.329Z,100928
2017-10-11T05:18:45.444Z,100932
2017-10-11T05:21:13.539Z,100919
2017-10-11T05:23:41.663Z,100928
2017-10-11T05:26:09.765Z,100923
2017-10-11T05:28:37.865Z,100930
2017-10-11T05:31:06.013Z,100924
2017-10-11T05:33:35.007Z,100929
2017-10-11T05:36:03.340Z,100932
2017-10-11T05:38:32.655Z,100927
2017-10-11T05:41:00.743Z,100927
2017-10-11T05:43:29.606Z,100927
2017-10-11T05:45:57.712Z,100937
2017-10-11T05:48:25.833Z,100934
2017-10-11T05:50:53.968Z,100935
2017-10-11T05:53:22.085Z,100946
2017-10-11T05:55:50.193Z,100940
2017-10-11T05:58:18.298Z,100934
2017-10-11T06:00:46.397Z,100948
2017-10-11T06:03:14.510Z,100944
2017-10-11T06:05:42.621Z,100942
2017-10-11T06:08:10.807Z,100949
2017-10-11T06:10:38.925Z,100938
2017-10-11T06:13:07.797Z,100938
2017-10-11T06:15:36.049Z,100938
2017-10-11T06:18:05.142Z,100949
2017-10-11T06:20:34.285Z,100944
2017-10-11T06:23:02.475Z,100952
2017-10-11T06:25:30.687Z,100948
2017-10-11T06:27:58.860Z,100950
2017-10-11T06:30:27.045Z,100952
2017-10-11T06:32:55.475Z,100953
2017-10-11T06:35:23.697Z,100960
2017-10-11T06:37:51.969Z,100955
2017-10-11T06:40:20.247Z,100954
2017-10-11T06:42:48.577Z,100957
2017-10-11T06:45:17.515Z,100965
2017-10-11T06:47:45.744Z,100968
2017-10-11T06:50:14.042Z,100963
2017-10-11T06:52:42.860Z,100966
2017-10-11T06:55:11.598Z,100965
2017-10-11T06:57:40.477Z,100965
2017-10-11T07:00:08.586Z,100975
2017-10-11T07:02:36.680Z,100976
2017-10-11T07:05:04.880Z,100978
2017-10-11T07:07:32.973Z,100972
2017-10-11T07:10:01.104Z,100979
2017-10-11T07:12:29.200Z,100984
2017-10-11T07:14:57.290Z,100981
2017-10-11T07:17:26.170Z,100986
2017-10-11T07:19:54.269Z,100982
2017-10-11T07:22:23.145Z,100985
2017-10-11T07:24:51.320Z,100984
2017-10-11T07:27:20.191Z,100988
2017-10-11T07:29:48.301Z,100986
2017-10-11T07:32:18.000Z,100985
2017-10-11T07:34:46.173Z,100997
2017-10-11T07:37:14.287Z,100987
2017-10-11T07:39:42.526Z,100996
2017-10-11T07:42:10.644Z,100992
2017-10-11T07:44:38.853Z,100992
2017-10-11T07:47:07.012Z,100995
2017-10-11T07:49:35.125Z,100995
2017-10-11T07:52:03.215Z,100996
2017-10-11T07:54:31.303Z,100995
2017-10-11T07:56:59.414Z,100992
2017-10-11T07:59:27.512Z,100988
2017-10-11T08:01:55.623Z,100989
2017-10-11T08:04:23.737Z,100993
2017-10-11T08:06:52.622Z,101001
2017-10-11T08:09:21.549Z,100992
2017-10-11T08:11:49.657Z,101002
2017-10-11T08:14:17.782Z,100995
2017-10-11T08:16:46.648Z,101000
2017-10-11T08:19:14.778Z,101005
2017-10-11T08:21:43.047Z,100998
2017-10-11T08:24:11.209Z,100994
2017-10-11T08:26:39.319Z,101011
2017-10-11T08:29:07.432Z,100996
2017-10-11T08:31:36.326Z,101011
2017-10-11T08:34:04.515Z,101014
2017-10-11T08:36:32.651Z,101010
2017-10-11T08:39:00.752Z,101000
2017-10-11T08:41:29.631Z,101002
2017-10-11T08:43:58.021Z,101003
2017-10-11T08:46:27.076Z,101003
2017-10-11T08:48:55.167Z,101006
2017-10-11T08:51:24.876Z,101001
2017-10-11T08:53:54.108Z,100995
2017-10-11T08:56:22.470Z,101001
2017-10-11T08:58:51.344Z,100993
2017-10-11T09:01:19.702Z,100994
2017-10-11T09:03:47.800Z,101001
2017-10-11T09:06:15.948Z,101002
2017-10-11T09:08:44.197Z,101001
2017-10-11T09:11:12.347Z,101007
2017-10-11T09:13:40.445Z,101009
2017-10-11T09:16:08.573Z,101007
2017-10-11T09:18:36.759Z,101011
2017-10-11T09:21:05.653Z,101007
2017-10-11T09:23:34.641Z,101019
2017-10-11T09:26:02.763Z,101012
2017-10-11T09:28:30.844Z,101012
2017-10-11T09:30:59.376Z,101013
2017-10-11T09:33:27.501Z,101005
2017-10-11T09:35:55.595Z,101002
2017-10-11T09:38:23.682Z,100998
2017-10-11T09:40:52.609Z,100994
2017-10-11T09:43:20.755Z,100997
2017-10-11T09:45:49.664Z,100999
2017-10-11T09:48:17.815Z,100997
2017-10-11T09:50:46.018Z,100999
2017-10-11T09:53:14.137Z,101002
2017-10-11T09:55:42.428Z,100994
2017-10-11T09:58:10.614Z,100987
2017-10-11T10:00:38.892Z,101010
2017-10-11T10:03:06.996Z,100995
2017-10-11T10:05:35.276Z,100990
2017-10-11T10:08:03.364Z,101000
2017-10-11T10:10:31.587Z,100994
2017-10-11T10:13:01.484Z,100996
2017-10-11T10:15:30.397Z,100997
2017-10-11T10:17:59.259Z,101002
2017-10-11T10:20:27.396Z,100997
2017-10-11T10:22:56.491Z,100993
2017-10-11T10:25:24.690Z,101004
2017-10-11T10:27:52.811Z,100994
2017-10-11T10:30:20.918Z,101000
2017-10-11T10:32:49.177Z,100996
2017-10-11T10:35:17.395Z,100991
2017-10-11T10:37:45.481Z,100996
2017-10-11T10:40:13.610Z,100995
2017-10-11T10:42:41.727Z,100994
2017-10-11T10:45:09.826Z,100986
2017-10-11T10:47:37.936Z,100988
2017-10-11T10:50:06.365Z,101004
2017-10-11T10:52:35.392Z,100992
2017-10-11T10:55:03.507Z,101000
2017-10-11T10:57:31.821Z,100996
2017-10-11T10:59:59.913Z,100997
2017-10-11T11:02:28.023Z,100994
2017-10-11T11:04:56.152Z,100987
2017-10-11T11:07:24.251Z,100988
2017-10-11T11:09:52.401Z,100991
2017-10-11T11:12:20.483Z,100987
2017-10-11T11:14:48.592Z,100981
2017-10-11T11:17:16.701Z,100985
2017-10-11T11:19:44.836Z,100982
2017-10-11T11:22:12.999Z,100976
2017-10-11T11:24:41.102Z,100976
2017-10-11T11:27:09.432Z,100975
2017-10-11T11:29:37.560Z,100975
2017-10-11T11:32:05.747Z,100971
2017-10-11T11:34:34.744Z,100966
2017-10-11T11:37:02.868Z,100968
2017-10-11T11:39:30.941Z,100972
2017-10-11T11:41:59.083Z,100961
2017-10-11T11:44:27.227Z,100967
2017-10-11T11:46:56.068Z,100962
2017-10-11T11:49:24.311Z,100962
2017-10-11T11:51:52.572Z,100950
2017-10-11T11:54:20.783Z,100952
2017-10-11T11:56:49.047Z,100940
2017-10-11T11:59:17.320Z,100946
2017-10-11T12:01:45.423Z,100949
2017-10-11T12:04:13.503Z,100943
2017-10-11T12:06:41.619Z,100941
2017-10-11T12:09:09.717Z,100935
2017-10-11T12:11:37.800Z,100940
2017-10-11T12:14:05.903Z,100938
2017-10-11T12:16:34.011Z,100937
2017-10-11T12:19:02.113Z,100933
2017-10-11T12:21:30.222Z,100916
2017-10-11T12:23:58.447Z,100927
2017-10-11T12:26:26.789Z,100937
2017-10-11T12:28:54.897Z,100934
2017-10-11T12:31:22.983Z,100935
2017-10-11T12:33:51.287Z,100945
2017-10-11T12:36:19.387Z,100933
2017-10-11T12:38:48.251Z,100931
2017-10-11T12:41:16.372Z,100934
2017-10-11T12:43:44.502Z,100930
2017-10-11T12:46:13.752Z,100935
2017-10-11T12:48:41.980Z,100929
2017-10-11T12:51:11.128Z,100933
2017-10-11T12:53:39.203Z,100926
2017-10-11T12:56:07.384Z,100926
2017-10-11T12:58:35.492Z,100928
2017-10-11T13:01:03.596Z,100920
2017-10-11T13:03:32.478Z,100918
2017-10-11T13:06:01.352Z,100923
2017-10-11T13:08:30.451Z,100913
2017-10-11T13:10:58.519Z,100915
2017-10-11T13:13:27.408Z,100918
2017-10-11T13:15:55.721Z,100914
2017-10-11T13:18:23.948Z,100915
2017-10-11T13:20:52.090Z,100903
2017-10-11T13:23:20.187Z,100908
2017-10-11T13:25:48.310Z,100896
2017-10-11T13:28:16.635Z,100895
2017-10-11T13:30:45.817Z,100900
2017-10-11T13:33:14.026Z,100893
2017-10-11T13:35:42.240Z,100883
2017-10-11T13:38:10.343Z,100885
2017-10-11T13:40:38.447Z,100886
2017-10-11T13:43:06.540Z,100887
2017-10-11T13:45:34.754Z,100879
2017-10-11T13:48:03.122Z,100877
2017-10-11T13:50:31.248Z,100884
2017-10-11T13:52:59.355Z,100874
2017-10-11T13:55:27.463Z,100874
2017-10-11T13:57:55.615Z,100866
2017-10-11T14:00:23.715Z,100877
2017-10-11T14:02:51.804Z,100871
2017-10-11T14:05:19.896Z,100868
2017-10-11T14:07:50.363Z,100861
2017-10-11T14:10:18.449Z,100861
2017-10-11T14:12:46.575Z,100860
2017-10-11T14:15:15.433Z,100863
2017-10-11T14:17:43.609Z,100858
2017-10-11T14:20:11.717Z,100856
2017-10-11T14:22:39.841Z,100854
2017-10-11T14:25:07.927Z,100850
2017-10-11T14:27:36.039Z,100855
2017-10-11T14:30:04.160Z,100846
2017-10-11T14:32:32.342Z,100832
2017-10-11T14:35:00.419Z,100848
2017-10-11T14:37:28.570Z,100835
2017-10-11T14:39:56.938Z,100824
2017-10-11T14:42:25.140Z,100828
2017-10-11T14:44:53.261Z,100829
2017-10-11T14:47:21.442Z,100826
2017-10-11T14:49:49.719Z,100821
2017-10-11T14:52:17.835Z,100829
2017-10-11T14:54:45.938Z,100817
2017-10-11T14:57:14.043Z,100822
2017-10-11T14:59:42.217Z,100818
2017-10-11T15:02:10.396Z,100818
2017-10-11T15:04:38.481Z,100817
2017-10-11T15:07:06.587Z,100824
2017-10-11T15:09:34.717Z,100821
2017-10-11T15:12:02.870Z,100821
2017-10-11T15:14:30.966Z,100815
2017-10-11T15:16:59.086Z,100809
2017-10-11T15:19:27.175Z,100810
2017-10-11T15:21:56.048Z,100815
2017-10-11T15:24:24.172Z,100816
2017-10-11T15:26:53.064Z,100812
2017-10-11T15:29:21.187Z,100817
2017-10-11T15:31:49.271Z,100809
2017-10-11T15:34:17.385Z,100816
2017-10-11T15:36:45.655Z,100816
2017-10-11T15:39:13.776Z,100811
2017-10-11T15:41:41.915Z,100809
2017-10-11T15:44:10.030Z,100812
2017-10-11T15:46:39.042Z,100815
2017-10-11T15:49:07.151Z,100814
2017-10-11T15:51:35.273Z,100814
2017-10-11T15:54:04.157Z,100805
2017-10-11T15:56:33.032Z,100806
2017-10-11T15:59:01.161Z,100815
2017-10-11T16:01:29.313Z,100807
2017-10-11T16:03:57.409Z,100806
2017-10-11T16:06:25.529Z,100803
2017-10-11T16:08:53.633Z,100792
2017-10-11T16:11:21.745Z,100797
2017-10-11T16:13:49.943Z,100794
2017-10-11T16:16:18.017Z,100800
2017-10-11T16:18:46.100Z,100804
2017-10-11T16:21:14.257Z,100797
2017-10-11T16:23:42.379Z,100798
2017-10-11T16:26:10.496Z,100797
2017-10-11T16:28:38.604Z,100794
2017-10-11T16:31:07.501Z,100789
2017-10-11T16:33:36.365Z,100784
2017-10-11T16:36:04.439Z,100790
2017-10-11T16:38:32.536Z,100789
2017-10-11T16:41:01.421Z,100787
2017-10-11T16:43:29.549Z,100783
2017-10-11T16:45:57.632Z,100780
2017-10-11T16:48:25.715Z,100782
2017-10-11T16:50:53.840Z,100789
2017-10-11T16:53:21.983Z,100777
2017-10-11T16:55:51.486Z,100772
2017-10-11T16:58:20.350Z,100780
2017-10-11T17:00:48.437Z,100780
2017-10-11T17:03:17.544Z,100781
2017-10-11T17:05:46.396Z,100788
2017-10-11T17:08:15.544Z,100790
2017-10-11T17:10:44.388Z,100773
2017-10-11T17:13:13.426Z,100784
2017-10-11T17:15:41.523Z,100780
2017-10-11T17:18:09.636Z,100789
2017-10-11T17:20:37.759Z,100789
2017-10-11T17:23:05.881Z,100782
2017-10-11T17:25:33.966Z,100780
2017-10-11T17:28:02.062Z,100786
2017-10-11T17:30:30.155Z,100787
2017-10-11T17:32:58.295Z,100782
2017-10-11T17:35:27.255Z,100777
2017-10-11T17:37:56.171Z,100774
2017-10-11T17:40:24.420Z,100773
2017-10-11T17:42:52.513Z,100774
2017-10-11T17:45:20.617Z,100776
2017-10-11T17:47:48.709Z,100781
2017-10-11T17:50:16.833Z,100792
2017-10-11T17:52:44.927Z,100786
2017-10-11T17:55:13.024Z,100794
2017-10-11T17:57:41.128Z,100788
2017-10-11T18:00:09.379Z,100793
2017-10-11T18:02:37.489Z,100795
2017-10-11T18:05:05.603Z,100790
2017-10-11T18:07:33.714Z,100788
2017-10-11T18:10:01.824Z,100790
2017-10-11T18:12:30.687Z,100796
2017-10-11T18:14:58.827Z,100792
2017-10-11T18:17:27.411Z,100788
2017-10-11T18:19:56.570Z,100801
2017-10-11T18:22:24.682Z,100803
2017-10-11T18:24:53.880Z,100795
2017-10-11T18:27:22.904Z,100803
2017-10-11T18:29:50.993Z,100795
2017-10-11T18:32:19.068Z,100805
2017-10-11T18:34:47.180Z,100809
2017-10-11T18:37:15.292Z,100796
2017-10-11T18:39:43.510Z,100802
2017-10-11T18:42:12.357Z,100798
2017-10-11T18:44:40.499Z,100793
2017-10-11T18:47:09.429Z,100796
2017-10-11T18:49:37.668Z,100804
2017-10-11T18:52:05.761Z,100808
2017-10-11T18:54:33.900Z,100806
2017-10-11T18:57:01.999Z,100799
2017-10-11T18:59:30.884Z,100808
2017-10-11T19:01:59.901Z,100807
2017-10-11T19:04:28.071Z,100808
2017-10-11T19:06:56.205Z,100808
2017-10-11T19:09:24.322Z,100813
2017-10-11T19:11:52.436Z,100813
2017-10-11T19:14:20.560Z,100814
2017-10-11T19:16:48.679Z,100813
2017-10-11T19:19:17.908Z,100810
2017-10-11T19:21:46.013Z,100819
2017-10-11T19:24:14.080Z,100812
2017-10-11T19:26:42.237Z,100814
2017-10-11T19:29:10.397Z,100810
2017-10-11T19:31:38.487Z,100806
2017-10-11T19:34:06.624Z,100807
2017-10-11T19:36:35.508Z,100812
2017-10-11T19:39:03.617Z,100811
2017-10-11T19:41:31.700Z,100803
2017-10-11T19:43:59.784Z,100812
2017-10-11T19:46:27.895Z,100804
2017-10-11T19:48:57.883Z,100800
2017-10-11T19:51:26.007Z,100802
2017-10-11T19:53:54.087Z,100802
2017-10-11T19:56:22.978Z,100809
2017-10-11T19:58:51.078Z,100795
2017-10-11T20:01:19.185Z,100801
2017-10-11T20:03:47.331Z,100799
2017-10-11T20:06:16.465Z,100802
2017-10-11T20:08:45.307Z,100802
2017-10-11T20:11:13.457Z,100805
2017-10-11T20:13:41.547Z,100809
2017-10-11T20:16:09.647Z,100806
2017-10-11T20:18:38.640Z,100808
2017-10-11T20:21:07.787Z,100807
2017-10-11T20:23:35.882Z,100802
2017-10-11T20:26:03.964Z,100802
2017-10-11T20:28:32.068Z,100802
2017-10-11T20:31:00.148Z,100806
2017-10-11T20:33:29.007Z,100803
2017-10-11T20:35:57.112Z,100806
2017-10-11T20:38:25.996Z,100808
2017-10-11T20:40:54.876Z,100797
2017-10-11T20:43:22.976Z,100799
2017-10-11T20:45:51.170Z,100802
2017-10-11T20:48:19.275Z,100795
2017-10-11T20:50:48.301Z,100797
2017-10-11T20:53:17.162Z,100793
2017-10-11T20:55:45.248Z,100793
2017-10-11T20:58:13.358Z,100797
2017-10-11T21:00:41.439Z,100793
2017-10-11T21:03:09.519Z,100789
2017-10-11T21:05:37.619Z,100790
2017-10-11T21:08:05.729Z,100788
2017-10-11T21:10:33.809Z,100797
2017-10-11T21:13:01.923Z,100797
2017-10-11T21:15:30.011Z,100795
2017-10-11T21:17:58.108Z,100792
2017-10-11T21:20:28.887Z,100791
2017-10-11T21:22:57.773Z,100783
2017-10-11T21:25:25.891Z,100788
2017-10-11T21:27:53.989Z,100786
2017-10-11T21:30:23.218Z,100782
2017-10-11T21:32:51.314Z,100791
2017-10-11T21:35:19.419Z,100787
2017-10-11T21:37:47.506Z,100786
2017-10-11T21:40:16.364Z,100786
2017-10-11T21:42:44.513Z,100786
2017-10-11T21:45:12.653Z,100786
2017-10-11T21:47:40.776Z,100784
2017-10-11T21:50:08.872Z,100780
2017-10-11T21:52:37.013Z,100780
2017-10-11T21:55:05.117Z,100779
2017-10-11T21:57:33.196Z,100781
2017-10-11T22:00:02.056Z,100771
2017-10-11T22:02:30.127Z,100763
2017-10-11T22:04:58.219Z,100773
2017-10-11T22:07:26.291Z,100777
2017-10-11T22:09:54.415Z,100770
2017-10-11T22:12:22.531Z,100763
2017-10-11T22:14:50.650Z,100763
2017-10-11T22:17:18.756Z,100759
2017-10-11T22:19:46.890Z,100750
2017-10-11T22:22:15.010Z,100744
2017-10-11T22:24:43.123Z,100750
2017-10-11T22:27:11.219Z,100749
2017-10-11T22:29:39.296Z,100759
2017-10-11T22:32:07.410Z,100749
2017-10-11T22:34:42.300Z,100733
2017-10-11T22:37:11.229Z,100732
2017-10-11T22:39:39.430Z,100737
2017-10-11T22:42:07.509Z,100741
2017-10-11T22:44:35.610Z,100734
2017-10-11T22:47:03.708Z,100747
2017-10-11T22:49:31.828Z,100742
2017-10-11T22:52:00.684Z,100734
2017-10-11T22:54:28.784Z,100737
2017-10-11T22:56:57.648Z,100734
2017-10-11T22:59:27.245Z,100741
2017-10-11T23:01:55.320Z,100735
2017-10-11T23:04:23.430Z,100729
2017-10-11T23:06:52.560Z,100734
2017-10-11T23:09:20.695Z,100729
2017-10-11T23:11:49.549Z,100723
2017-10-11T23:14:17.644Z,100716
2017-10-11T23:16:46.836Z,100713
2017-10-11T23:19:14.925Z,100714
2017-10-11T23:21:43.795Z,100719
2017-10-11T23:24:11.885Z,100711
2017-10-11T23:26:40.760Z,100706
2017-10-11T23:29:08.846Z,100715
2017-10-11T23:31:37.872Z,100710
2017-10-11T23:34:05.976Z,100707
2017-10-11T23:36:34.055Z,100697
2017-10-11T23:39:02.160Z,100702
2017-10-11T23:41:30.247Z,100696
2017-10-11T23:43:59.098Z,100696
2017-10-11T23:46:27.200Z,100701
2017-10-11T23:48:55.540Z,100698
2017-10-11T23:51:23.629Z,100702
2017-10-11T23:53:51.704Z,100707
2017-10-11T23:56:19.841Z,100690
2017-10-11T23:58:47.948Z,100709
